sensor_id;sensor_type;location;lat;lon;timestamp;P1;durP1;ratioP1;P2;durP2;ratioP2
52620;SDS011;38515;53.160;6.990;2022-11-06T00:01:09;55.50;;;52.60;;
52620;SDS011;38515;53.160;6.990;2022-11-06T00:03:38;55.05;;;52.20;;
52620;SDS011;38515;53.160;6.990;2022-11-06T00:06:05;53.20;;;50.50;;
52620;SDS011;38515;53.160;6.990;2022-11-06T00:08:53;66.28;;;62.47;;
52620;SDS011;38515;53.160;6.990;2022-11-06T00:11:19;57.17;;;54.17;;
52620;SDS011;38515;53.160;6.990;2022-11-06T00:13:45;54.55;;;51.75;;
52620;SDS011;38515;53.160;6.990;2022-11-06T00:16:12;56.42;;;53.35;;
52620;SDS011;38515;53.160;6.990;2022-11-06T00:18:39;53.05;;;50.42;;
52620;SDS011;38515;53.160;6.990;2022-11-06T00:21:09;57.28;;;54.50;;
52620;SDS011;38515;53.160;6.990;2022-11-06T00:23:37;55.80;;;52.97;;
52620;SDS011;38515;53.160;6.990;2022-11-06T00:26:07;55.28;;;52.45;;
52620;SDS011;38515;53.160;6.990;2022-11-06T00:28:35;55.15;;;52.47;;
52620;SDS011;38515;53.160;6.990;2022-11-06T00:31:11;52.47;;;49.67;;
52620;SDS011;38515;53.160;6.990;2022-11-06T00:33:39;58.28;;;54.90;;
52620;SDS011;38515;53.160;6.990;2022-11-06T00:36:06;59.67;;;55.22;;
52620;SDS011;38515;53.160;6.990;2022-11-06T00:38:34;56.92;;;54.08;;
52620;SDS011;38515;53.160;6.990;2022-11-06T00:41:01;55.97;;;52.78;;
52620;SDS011;38515;53.160;6.990;2022-11-06T00:43:28;56.22;;;53.13;;
52620;SDS011;38515;53.160;6.990;2022-11-06T00:45:59;53.95;;;51.28;;
52620;SDS011;38515;53.160;6.990;2022-11-06T00:48:29;54.67;;;51.60;;
52620;SDS011;38515;53.160;6.990;2022-11-06T00:51:00;57.70;;;54.38;;
52620;SDS011;38515;53.160;6.990;2022-11-06T00:53:45;58.75;;;55.45;;
52620;SDS011;38515;53.160;6.990;2022-11-06T00:56:13;59.55;;;56.38;;
52620;SDS011;38515;53.160;6.990;2022-11-06T00:58:40;77.57;;;73.45;;
52620;SDS011;38515;53.160;6.990;2022-11-06T01:01:11;89.93;;;85.90;;
52620;SDS011;38515;53.160;6.990;2022-11-06T01:03:42;106.05;;;100.90;;
52620;SDS011;38515;53.160;6.990;2022-11-06T01:06:10;614.08;;;358.83;;
52620;SDS011;38515;53.160;6.990;2022-11-06T01:08:42;1999.90;;;999.90;;
52620;SDS011;38515;53.160;6.990;2022-11-06T01:11:10;161.90;;;154.93;;
52620;SDS011;38515;53.160;6.990;2022-11-06T01:13:41;621.55;;;366.35;;
52620;SDS011;38515;53.160;6.990;2022-11-06T01:16:09;1999.90;;;999.90;;
52620;SDS011;38515;53.160;6.990;2022-11-06T01:18:37;1999.90;;;999.90;;
52620;SDS011;38515;53.160;6.990;2022-11-06T01:21:05;1999.90;;;999.90;;
52620;SDS011;38515;53.160;6.990;2022-11-06T01:23:33;1999.90;;;999.90;;
52620;SDS011;38515;53.160;6.990;2022-11-06T01:26:00;1999.90;;;999.90;;
52620;SDS011;38515;53.160;6.990;2022-11-06T01:28:28;1999.90;;;999.90;;
52620;SDS011;38515;53.160;6.990;2022-11-06T01:30:54;1999.90;;;999.90;;
52620;SDS011;38515;53.160;6.990;2022-11-06T01:33:23;1999.90;;;999.90;;
52620;SDS011;38515;53.160;6.990;2022-11-06T01:35:49;1999.90;;;999.90;;
52620;SDS011;38515;53.160;6.990;2022-11-06T01:38:16;1999.90;;;999.90;;
52620;SDS011;38515;53.160;6.990;2022-11-06T01:40:43;1999.90;;;999.90;;
52620;SDS011;38515;53.160;6.990;2022-11-06T01:43:21;1999.90;;;999.90;;
52620;SDS011;38515;53.160;6.990;2022-11-06T01:45:52;1999.90;;;999.90;;
52620;SDS011;38515;53.160;6.990;2022-11-06T01:48:21;1999.90;;;999.90;;
52620;SDS011;38515;53.160;6.990;2022-11-06T01:50:52;1999.90;;;999.90;;
52620;SDS011;38515;53.160;6.990;2022-11-06T01:53:20;1999.90;;;999.90;;
52620;SDS011;38515;53.160;6.990;2022-11-06T01:55:50;1999.90;;;999.90;;
52620;SDS011;38515;53.160;6.990;2022-11-06T01:58:19;1999.90;;;999.90;;
52620;SDS011;38515;53.160;6.990;2022-11-06T02:00:48;1999.90;;;999.90;;
52620;SDS011;38515;53.160;6.990;2022-11-06T02:03:14;1999.90;;;999.90;;
52620;SDS011;38515;53.160;6.990;2022-11-06T02:05:41;1999.90;;;999.90;;
52620;SDS011;38515;53.160;6.990;2022-11-06T02:08:07;1999.90;;;999.90;;
52620;SDS011;38515;53.160;6.990;2022-11-06T02:10:37;1999.90;;;999.90;;
52620;SDS011;38515;53.160;6.990;2022-11-06T02:15:57;1999.90;;;999.90;;
52620;SDS011;38515;53.160;6.990;2022-11-06T02:18:43;1999.90;;;999.90;;
52620;SDS011;38515;53.160;6.990;2022-11-06T02:21:25;1999.90;;;999.90;;
52620;SDS011;38515;53.160;6.990;2022-11-06T02:24:14;1999.90;;;999.90;;
52620;SDS011;38515;53.160;6.990;2022-11-06T02:27:02;1999.90;;;999.90;;
52620;SDS011;38515;53.160;6.990;2022-11-06T02:32:34;1999.90;;;999.90;;
52620;SDS011;38515;53.160;6.990;2022-11-06T02:35:15;1999.90;;;999.90;;
52620;SDS011;38515;53.160;6.990;2022-11-06T02:37:54;1999.90;;;999.90;;
52620;SDS011;38515;53.160;6.990;2022-11-06T02:40:25;1999.90;;;999.90;;
52620;SDS011;38515;53.160;6.990;2022-11-06T02:42:57;1999.90;;;999.90;;
52620;SDS011;38515;53.160;6.990;2022-11-06T02:45:26;1999.90;;;999.90;;
52620;SDS011;38515;53.160;6.990;2022-11-06T02:47:56;1999.90;;;999.90;;
52620;SDS011;38515;53.160;6.990;2022-11-06T02:50:32;1999.90;;;999.90;;
52620;SDS011;38515;53.160;6.990;2022-11-06T02:53:05;1999.90;;;999.90;;
52620;SDS011;38515;53.160;6.990;2022-11-06T02:55:37;1999.90;;;999.90;;
52620;SDS011;38515;53.160;6.990;2022-11-06T03:00:49;1999.90;;;999.90;;
52620;SDS011;38515;53.160;6.990;2022-11-06T03:03:25;1999.90;;;999.90;;
52620;SDS011;38515;53.160;6.990;2022-11-06T03:08:37;1999.90;;;999.90;;
52620;SDS011;38515;53.160;6.990;2022-11-06T03:13:50;1999.90;;;999.90;;
52620;SDS011;38515;53.160;6.990;2022-11-06T03:19:29;1999.90;;;999.90;;
52620;SDS011;38515;53.160;6.990;2022-11-06T03:22:48;1999.90;;;999.90;;
52620;SDS011;38515;53.160;6.990;2022-11-06T03:25:19;1999.90;;;999.90;;
52620;SDS011;38515;53.160;6.990;2022-11-06T03:28:00;1999.90;;;999.90;;
52620;SDS011;38515;53.160;6.990;2022-11-06T03:30:41;1999.90;;;999.90;;
52620;SDS011;38515;53.160;6.990;2022-11-06T03:33:20;1999.90;;;999.90;;
52620;SDS011;38515;53.160;6.990;2022-11-06T03:39:16;1999.90;;;999.90;;
52620;SDS011;38515;53.160;6.990;2022-11-06T03:44:25;1999.90;;;999.90;;
52620;SDS011;38515;53.160;6.990;2022-11-06T03:46:53;1999.90;;;999.90;;
52620;SDS011;38515;53.160;6.990;2022-11-06T03:49:36;1999.90;;;999.90;;
52620;SDS011;38515;53.160;6.990;2022-11-06T03:52:10;1999.90;;;999.90;;
52620;SDS011;38515;53.160;6.990;2022-11-06T03:54:48;1999.90;;;999.90;;
52620;SDS011;38515;53.160;6.990;2022-11-06T03:57:20;1999.90;;;999.90;;
52620;SDS011;38515;53.160;6.990;2022-11-06T03:59:54;1999.90;;;999.90;;
52620;SDS011;38515;53.160;6.990;2022-11-06T04:02:23;1999.90;;;999.90;;
52620;SDS011;38515;53.160;6.990;2022-11-06T04:04:55;1999.90;;;999.90;;
52620;SDS011;38515;53.160;6.990;2022-11-06T04:07:25;1999.90;;;999.90;;
52620;SDS011;38515;53.160;6.990;2022-11-06T04:09:58;1999.90;;;999.90;;
52620;SDS011;38515;53.160;6.990;2022-11-06T04:12:45;1999.90;;;999.90;;
52620;SDS011;38515;53.160;6.990;2022-11-06T04:15:33;1999.90;;;999.90;;
52620;SDS011;38515;53.160;6.990;2022-11-06T04:18:18;1999.90;;;999.90;;
52620;SDS011;38515;53.160;6.990;2022-11-06T04:20:48;1999.90;;;999.90;;
52620;SDS011;38515;53.160;6.990;2022-11-06T04:23:53;1999.90;;;999.90;;
52620;SDS011;38515;53.160;6.990;2022-11-06T04:27:07;1999.90;;;999.90;;
52620;SDS011;38515;53.160;6.990;2022-11-06T04:35:47;1999.90;;;999.90;;
52620;SDS011;38515;53.160;6.990;2022-11-06T04:38:34;1999.90;;;999.90;;
52620;SDS011;38515;53.160;6.990;2022-11-06T04:44:45;1999.90;;;999.90;;
52620;SDS011;38515;53.160;6.990;2022-11-06T04:47:18;1999.90;;;999.90;;
52620;SDS011;38515;53.160;6.990;2022-11-06T04:49:47;1999.90;;;999.90;;
52620;SDS011;38515;53.160;6.990;2022-11-06T04:52:19;1999.90;;;999.90;;
52620;SDS011;38515;53.160;6.990;2022-11-06T04:54:49;1999.90;;;999.90;;
52620;SDS011;38515;53.160;6.990;2022-11-06T04:57:16;1999.90;;;999.90;;
52620;SDS011;38515;53.160;6.990;2022-11-06T04:59:42;1999.90;;;999.90;;
52620;SDS011;38515;53.160;6.990;2022-11-06T05:02:08;1999.90;;;999.90;;
52620;SDS011;38515;53.160;6.990;2022-11-06T05:04:34;1999.90;;;999.90;;
52620;SDS011;38515;53.160;6.990;2022-11-06T05:07:00;1999.90;;;999.90;;
52620;SDS011;38515;53.160;6.990;2022-11-06T05:09:25;1999.90;;;999.90;;
52620;SDS011;38515;53.160;6.990;2022-11-06T05:11:51;1999.90;;;999.90;;
52620;SDS011;38515;53.160;6.990;2022-11-06T05:14:17;1999.90;;;999.90;;
52620;SDS011;38515;53.160;6.990;2022-11-06T05:16:43;1999.90;;;999.90;;
52620;SDS011;38515;53.160;6.990;2022-11-06T05:19:09;1999.90;;;999.90;;
52620;SDS011;38515;53.160;6.990;2022-11-06T05:21:35;1999.90;;;999.90;;
52620;SDS011;38515;53.160;6.990;2022-11-06T05:24:19;1999.90;;;999.90;;
52620;SDS011;38515;53.160;6.990;2022-11-06T05:26:44;1999.90;;;999.90;;
52620;SDS011;38515;53.160;6.990;2022-11-06T05:29:11;1999.90;;;999.90;;
52620;SDS011;38515;53.160;6.990;2022-11-06T05:31:37;1999.90;;;999.90;;
52620;SDS011;38515;53.160;6.990;2022-11-06T05:34:03;1999.90;;;999.90;;
52620;SDS011;38515;53.160;6.990;2022-11-06T05:36:29;1999.90;;;999.90;;
52620;SDS011;38515;53.160;6.990;2022-11-06T05:38:55;1999.90;;;999.90;;
52620;SDS011;38515;53.160;6.990;2022-11-06T05:41:24;1999.90;;;999.90;;
52620;SDS011;38515;53.160;6.990;2022-11-06T05:43:50;1999.90;;;999.90;;
52620;SDS011;38515;53.160;6.990;2022-11-06T05:46:16;1999.90;;;999.90;;
52620;SDS011;38515;53.160;6.990;2022-11-06T05:48:42;1999.90;;;999.90;;
52620;SDS011;38515;53.160;6.990;2022-11-06T05:51:08;1999.90;;;999.90;;
52620;SDS011;38515;53.160;6.990;2022-11-06T05:53:35;1999.90;;;999.90;;
52620;SDS011;38515;53.160;6.990;2022-11-06T05:56:02;1999.90;;;999.90;;
52620;SDS011;38515;53.160;6.990;2022-11-06T05:58:29;1999.90;;;999.90;;
52620;SDS011;38515;53.160;6.990;2022-11-06T06:00:55;1999.90;;;999.90;;
52620;SDS011;38515;53.160;6.990;2022-11-06T06:03:22;1999.90;;;999.90;;
52620;SDS011;38515;53.160;6.990;2022-11-06T06:05:49;1999.90;;;999.90;;
52620;SDS011;38515;53.160;6.990;2022-11-06T06:08:15;1999.90;;;999.90;;
52620;SDS011;38515;53.160;6.990;2022-11-06T06:10:45;1999.90;;;999.90;;
52620;SDS011;38515;53.160;6.990;2022-11-06T06:13:12;1999.90;;;999.90;;
52620;SDS011;38515;53.160;6.990;2022-11-06T06:15:39;1999.90;;;999.90;;
52620;SDS011;38515;53.160;6.990;2022-11-06T06:18:06;1999.90;;;999.90;;
52620;SDS011;38515;53.160;6.990;2022-11-06T06:20:33;1999.90;;;999.90;;
52620;SDS011;38515;53.160;6.990;2022-11-06T06:22:59;1999.90;;;999.90;;
52620;SDS011;38515;53.160;6.990;2022-11-06T06:25:26;1999.90;;;999.90;;
52620;SDS011;38515;53.160;6.990;2022-11-06T06:27:52;1999.90;;;999.90;;
52620;SDS011;38515;53.160;6.990;2022-11-06T06:30:19;1999.90;;;999.90;;
52620;SDS011;38515;53.160;6.990;2022-11-06T06:32:47;1999.90;;;999.90;;
52620;SDS011;38515;53.160;6.990;2022-11-06T06:35:13;1999.90;;;999.90;;
52620;SDS011;38515;53.160;6.990;2022-11-06T06:37:39;1999.90;;;999.90;;
52620;SDS011;38515;53.160;6.990;2022-11-06T06:40:05;1999.90;;;999.90;;
52620;SDS011;38515;53.160;6.990;2022-11-06T06:42:31;1999.90;;;999.90;;
52620;SDS011;38515;53.160;6.990;2022-11-06T06:44:57;1999.90;;;999.90;;
52620;SDS011;38515;53.160;6.990;2022-11-06T06:47:23;1999.90;;;999.90;;
52620;SDS011;38515;53.160;6.990;2022-11-06T06:49:49;1999.90;;;999.90;;
52620;SDS011;38515;53.160;6.990;2022-11-06T06:52:15;1999.90;;;999.90;;
52620;SDS011;38515;53.160;6.990;2022-11-06T06:54:41;1999.90;;;999.90;;
52620;SDS011;38515;53.160;6.990;2022-11-06T06:57:07;1999.90;;;999.90;;
52620;SDS011;38515;53.160;6.990;2022-11-06T06:59:33;1999.90;;;999.90;;
52620;SDS011;38515;53.160;6.990;2022-11-06T07:01:59;1999.90;;;999.90;;
52620;SDS011;38515;53.160;6.990;2022-11-06T07:04:25;1999.90;;;999.90;;
52620;SDS011;38515;53.160;6.990;2022-11-06T07:06:54;1999.90;;;999.90;;
52620;SDS011;38515;53.160;6.990;2022-11-06T07:09:23;1999.90;;;999.90;;
52620;SDS011;38515;53.160;6.990;2022-11-06T07:11:49;1999.90;;;999.90;;
52620;SDS011;38515;53.160;6.990;2022-11-06T07:14:15;1999.90;;;999.90;;
52620;SDS011;38515;53.160;6.990;2022-11-06T07:16:40;1999.90;;;999.90;;
52620;SDS011;38515;53.160;6.990;2022-11-06T07:19:06;1999.90;;;999.90;;
52620;SDS011;38515;53.160;6.990;2022-11-06T07:21:32;1999.90;;;999.90;;
52620;SDS011;38515;53.160;6.990;2022-11-06T07:23:58;1999.90;;;999.90;;
52620;SDS011;38515;53.160;6.990;2022-11-06T07:26:24;1999.90;;;999.90;;
52620;SDS011;38515;53.160;6.990;2022-11-06T07:28:50;1999.90;;;999.90;;
52620;SDS011;38515;53.160;6.990;2022-11-06T07:31:16;1999.90;;;999.90;;
52620;SDS011;38515;53.160;6.990;2022-11-06T07:33:42;1999.90;;;999.90;;
52620;SDS011;38515;53.160;6.990;2022-11-06T07:36:08;1999.90;;;999.90;;
52620;SDS011;38515;53.160;6.990;2022-11-06T07:38:36;1999.90;;;999.90;;
52620;SDS011;38515;53.160;6.990;2022-11-06T07:41:05;1999.90;;;999.90;;
52620;SDS011;38515;53.160;6.990;2022-11-06T07:43:33;1999.90;;;999.90;;
52620;SDS011;38515;53.160;6.990;2022-11-06T07:45:59;1999.90;;;999.90;;
52620;SDS011;38515;53.160;6.990;2022-11-06T07:48:26;1999.90;;;999.90;;
52620;SDS011;38515;53.160;6.990;2022-11-06T07:50:53;1999.90;;;999.90;;
52620;SDS011;38515;53.160;6.990;2022-11-06T07:53:19;1999.90;;;999.90;;
52620;SDS011;38515;53.160;6.990;2022-11-06T07:55:48;1999.90;;;999.90;;
52620;SDS011;38515;53.160;6.990;2022-11-06T07:58:15;1999.90;;;999.90;;
52620;SDS011;38515;53.160;6.990;2022-11-06T08:00:48;1999.90;;;999.90;;
52620;SDS011;38515;53.160;6.990;2022-11-06T08:03:17;1999.90;;;999.90;;
52620;SDS011;38515;53.160;6.990;2022-11-06T08:05:44;1999.90;;;999.90;;
52620;SDS011;38515;53.160;6.990;2022-11-06T08:08:10;1999.90;;;999.90;;
52620;SDS011;38515;53.160;6.990;2022-11-06T08:10:37;1999.90;;;999.90;;
52620;SDS011;38515;53.160;6.990;2022-11-06T08:13:15;1999.90;;;999.90;;
52620;SDS011;38515;53.160;6.990;2022-11-06T08:15:41;1003.90;;;723.25;;
52620;SDS011;38515;53.160;6.990;2022-11-06T08:18:07;1999.90;;;999.90;;
52620;SDS011;38515;53.160;6.990;2022-11-06T08:20:35;1999.90;;;999.90;;
52620;SDS011;38515;53.160;6.990;2022-11-06T08:23:03;1999.90;;;999.90;;
52620;SDS011;38515;53.160;6.990;2022-11-06T08:25:30;1999.90;;;999.90;;
52620;SDS011;38515;53.160;6.990;2022-11-06T08:27:58;338.60;;;322.42;;
52620;SDS011;38515;53.160;6.990;2022-11-06T08:30:25;477.63;;;451.55;;
52620;SDS011;38515;53.160;6.990;2022-11-06T08:32:53;684.13;;;643.22;;
52620;SDS011;38515;53.160;6.990;2022-11-06T08:35:20;434.42;;;414.20;;
52620;SDS011;38515;53.160;6.990;2022-11-06T08:37:46;345.58;;;329.83;;
52620;SDS011;38515;53.160;6.990;2022-11-06T08:40:12;383.67;;;364.00;;
52620;SDS011;38515;53.160;6.990;2022-11-06T08:42:38;483.20;;;456.23;;
52620;SDS011;38515;53.160;6.990;2022-11-06T08:45:04;644.70;;;606.17;;
52620;SDS011;38515;53.160;6.990;2022-11-06T08:47:30;524.10;;;494.90;;
52620;SDS011;38515;53.160;6.990;2022-11-06T08:49:56;401.10;;;381.30;;
52620;SDS011;38515;53.160;6.990;2022-11-06T08:52:22;192.77;;;185.18;;
52620;SDS011;38515;53.160;6.990;2022-11-06T08:54:49;219.07;;;209.80;;
52620;SDS011;38515;53.160;6.990;2022-11-06T08:57:15;139.18;;;133.45;;
52620;SDS011;38515;53.160;6.990;2022-11-06T08:59:42;301.23;;;287.98;;
52620;SDS011;38515;53.160;6.990;2022-11-06T09:02:12;315.80;;;301.25;;
52620;SDS011;38515;53.160;6.990;2022-11-06T09:04:39;326.10;;;310.50;;
52620;SDS011;38515;53.160;6.990;2022-11-06T09:07:05;167.40;;;160.40;;
52620;SDS011;38515;53.160;6.990;2022-11-06T09:09:31;488.05;;;461.67;;
52620;SDS011;38515;53.160;6.990;2022-11-06T09:11:57;554.08;;;523.97;;
52620;SDS011;38515;53.160;6.990;2022-11-06T09:14:24;1999.90;;;999.90;;
52620;SDS011;38515;53.160;6.990;2022-11-06T09:16:50;1999.90;;;999.90;;
52620;SDS011;38515;53.160;6.990;2022-11-06T09:19:16;1004.70;;;724.78;;
52620;SDS011;38515;53.160;6.990;2022-11-06T09:21:42;1146.00;;;855.65;;
52620;SDS011;38515;53.160;6.990;2022-11-06T09:24:09;647.75;;;610.85;;
52620;SDS011;38515;53.160;6.990;2022-11-06T09:26:34;679.25;;;639.65;;
52620;SDS011;38515;53.160;6.990;2022-11-06T09:29:00;329.50;;;314.10;;
52620;SDS011;38515;53.160;6.990;2022-11-06T09:31:26;567.13;;;534.25;;
52620;SDS011;38515;53.160;6.990;2022-11-06T09:33:52;643.97;;;606.22;;
52620;SDS011;38515;53.160;6.990;2022-11-06T09:36:18;1999.90;;;999.90;;
52620;SDS011;38515;53.160;6.990;2022-11-06T09:38:44;1999.90;;;999.90;;
52620;SDS011;38515;53.160;6.990;2022-11-06T09:41:27;1999.90;;;999.90;;
52620;SDS011;38515;53.160;6.990;2022-11-06T09:47:02;1999.90;;;999.90;;
52620;SDS011;38515;53.160;6.990;2022-11-06T09:49:45;1999.90;;;999.90;;
52620;SDS011;38515;53.160;6.990;2022-11-06T09:55:20;743.38;;;698.20;;
52620;SDS011;38515;53.160;6.990;2022-11-06T09:57:56;328.20;;;312.80;;
52620;SDS011;38515;53.160;6.990;2022-11-06T10:00:26;270.13;;;258.35;;
52620;SDS011;38515;53.160;6.990;2022-11-06T10:02:54;153.52;;;147.38;;
52620;SDS011;38515;53.160;6.990;2022-11-06T10:05:27;254.93;;;243.63;;
52620;SDS011;38515;53.160;6.990;2022-11-06T10:07:59;239.32;;;229.82;;
52620;SDS011;38515;53.160;6.990;2022-11-06T10:10:40;170.05;;;162.82;;
52620;SDS011;38515;53.160;6.990;2022-11-06T10:21:58;284.17;;;271.50;;
52620;SDS011;38515;53.160;6.990;2022-11-06T10:27:39;584.72;;;551.97;;
52620;SDS011;38515;53.160;6.990;2022-11-06T10:35:22;277.80;;;266.23;;
52620;SDS011;38515;53.160;6.990;2022-11-06T10:40:42;503.00;;;477.80;;
52620;SDS011;38515;53.160;6.990;2022-11-06T10:45:54;216.48;;;207.02;;
52620;SDS011;38515;53.160;6.990;2022-11-06T10:48:31;162.75;;;155.77;;
52620;SDS011;38515;53.160;6.990;2022-11-06T10:51:10;144.05;;;137.88;;
52620;SDS011;38515;53.160;6.990;2022-11-06T10:54:03;121.10;;;116.03;;
52620;SDS011;38515;53.160;6.990;2022-11-06T10:59:20;158.80;;;152.25;;
52620;SDS011;38515;53.160;6.990;2022-11-06T11:01:46;282.73;;;270.25;;
52620;SDS011;38515;53.160;6.990;2022-11-06T11:04:12;408.88;;;388.42;;
52620;SDS011;38515;53.160;6.990;2022-11-06T11:06:38;1999.90;;;999.90;;
52620;SDS011;38515;53.160;6.990;2022-11-06T11:11:52;1999.90;;;999.90;;
52620;SDS011;38515;53.160;6.990;2022-11-06T11:14:22;1999.90;;;999.90;;
52620;SDS011;38515;53.160;6.990;2022-11-06T11:16:50;1999.90;;;999.90;;
52620;SDS011;38515;53.160;6.990;2022-11-06T11:25:00;1999.90;;;999.90;;
52620;SDS011;38515;53.160;6.990;2022-11-06T11:27:30;1999.90;;;999.90;;
52620;SDS011;38515;53.160;6.990;2022-11-06T11:30:10;1999.90;;;999.90;;
52620;SDS011;38515;53.160;6.990;2022-11-06T11:32:45;1999.90;;;999.90;;
52620;SDS011;38515;53.160;6.990;2022-11-06T11:35:11;1999.90;;;999.90;;
52620;SDS011;38515;53.160;6.990;2022-11-06T11:37:42;1999.90;;;999.90;;
52620;SDS011;38515;53.160;6.990;2022-11-06T11:40:29;1999.90;;;999.90;;
52620;SDS011;38515;53.160;6.990;2022-11-06T11:43:19;1999.90;;;999.90;;
52620;SDS011;38515;53.160;6.990;2022-11-06T11:48:42;1999.90;;;999.90;;
52620;SDS011;38515;53.160;6.990;2022-11-06T11:51:35;1999.90;;;999.90;;
52620;SDS011;38515;53.160;6.990;2022-11-06T11:56:49;1999.90;;;999.90;;
52620;SDS011;38515;53.160;6.990;2022-11-06T11:59:35;1999.90;;;999.90;;
52620;SDS011;38515;53.160;6.990;2022-11-06T12:02:24;1999.90;;;999.90;;
52620;SDS011;38515;53.160;6.990;2022-11-06T12:05:02;1999.90;;;999.90;;
52620;SDS011;38515;53.160;6.990;2022-11-06T12:07:35;1999.90;;;999.90;;
52620;SDS011;38515;53.160;6.990;2022-11-06T12:10:28;1999.90;;;999.90;;
52620;SDS011;38515;53.160;6.990;2022-11-06T12:13:04;282.90;;;270.73;;
52620;SDS011;38515;53.160;6.990;2022-11-06T12:18:29;1999.90;;;999.90;;
52620;SDS011;38515;53.160;6.990;2022-11-06T12:29:20;170.90;;;164.07;;
52620;SDS011;38515;53.160;6.990;2022-11-06T12:31:49;157.98;;;151.57;;
52620;SDS011;38515;53.160;6.990;2022-11-06T12:34:37;293.23;;;280.60;;
52620;SDS011;38515;53.160;6.990;2022-11-06T12:40:16;117.78;;;113.13;;
52620;SDS011;38515;53.160;6.990;2022-11-06T12:42:48;468.35;;;446.25;;
52620;SDS011;38515;53.160;6.990;2022-11-06T12:45:36;656.90;;;620.28;;
52620;SDS011;38515;53.160;6.990;2022-11-06T12:48:12;321.98;;;306.67;;
52620;SDS011;38515;53.160;6.990;2022-11-06T12:56:21;140.60;;;134.57;;
52620;SDS011;38515;53.160;6.990;2022-11-06T12:59:25;525.50;;;497.55;;
52620;SDS011;38515;53.160;6.990;2022-11-06T13:02:03;464.23;;;443.40;;
52620;SDS011;38515;53.160;6.990;2022-11-06T13:04:54;583.78;;;553.97;;
52620;SDS011;38515;53.160;6.990;2022-11-06T13:19:02;324.05;;;308.67;;
52620;SDS011;38515;53.160;6.990;2022-11-06T13:22:22;452.75;;;430.58;;
52620;SDS011;38515;53.160;6.990;2022-11-06T13:30:13;252.73;;;242.57;;
52620;SDS011;38515;53.160;6.990;2022-11-06T13:32:52;187.32;;;179.88;;
52620;SDS011;38515;53.160;6.990;2022-11-06T13:35:33;133.93;;;128.77;;
52620;SDS011;38515;53.160;6.990;2022-11-06T13:38:07;459.85;;;437.90;;
52620;SDS011;38515;53.160;6.990;2022-11-06T13:40:44;293.80;;;281.25;;
52620;SDS011;38515;53.160;6.990;2022-11-06T14:04:48;261.73;;;250.15;;
52620;SDS011;38515;53.160;6.990;2022-11-06T14:07:39;468.13;;;446.07;;
52620;SDS011;38515;53.160;6.990;2022-11-06T14:10:16;521.00;;;494.50;;
52620;SDS011;38515;53.160;6.990;2022-11-06T14:12:50;357.40;;;341.83;;
52620;SDS011;38515;53.160;6.990;2022-11-06T14:17:55;355.10;;;339.50;;
52620;SDS011;38515;53.160;6.990;2022-11-06T14:20:27;155.88;;;149.20;;
52620;SDS011;38515;53.160;6.990;2022-11-06T14:22:54;85.28;;;81.85;;
52620;SDS011;38515;53.160;6.990;2022-11-06T14:28:07;104.20;;;99.72;;
52620;SDS011;38515;53.160;6.990;2022-11-06T14:33:01;221.07;;;211.40;;
52620;SDS011;38515;53.160;6.990;2022-11-06T14:38:29;201.63;;;193.60;;
52620;SDS011;38515;53.160;6.990;2022-11-06T14:40:56;70.05;;;67.22;;
52620;SDS011;38515;53.160;6.990;2022-11-06T14:48:34;115.90;;;111.30;;
52620;SDS011;38515;53.160;6.990;2022-11-06T14:51:03;61.88;;;59.17;;
52620;SDS011;38515;53.160;6.990;2022-11-06T14:56:24;113.57;;;109.03;;
52620;SDS011;38515;53.160;6.990;2022-11-06T14:58:53;135.60;;;130.35;;
52620;SDS011;38515;53.160;6.990;2022-11-06T15:01:40;375.33;;;357.90;;
52620;SDS011;38515;53.160;6.990;2022-11-06T15:04:18;74.32;;;71.20;;
52620;SDS011;38515;53.160;6.990;2022-11-06T15:06:46;98.13;;;94.13;;
52620;SDS011;38515;53.160;6.990;2022-11-06T15:09:15;96.63;;;92.55;;
52620;SDS011;38515;53.160;6.990;2022-11-06T15:12:06;212.02;;;203.65;;
52620;SDS011;38515;53.160;6.990;2022-11-06T15:17:02;256.75;;;246.20;;
52620;SDS011;38515;53.160;6.990;2022-11-06T15:19:41;296.42;;;284.40;;
52620;SDS011;38515;53.160;6.990;2022-11-06T15:24:58;122.03;;;117.28;;
52620;SDS011;38515;53.160;6.990;2022-11-06T15:27:31;254.57;;;244.68;;
52620;SDS011;38515;53.160;6.990;2022-11-06T15:30:01;262.83;;;252.25;;
52620;SDS011;38515;53.160;6.990;2022-11-06T15:32:29;197.88;;;190.43;;
52620;SDS011;38515;53.160;6.990;2022-11-06T15:35:16;91.00;;;87.40;;
52620;SDS011;38515;53.160;6.990;2022-11-06T15:38:06;150.50;;;144.43;;
52620;SDS011;38515;53.160;6.990;2022-11-06T15:40:37;89.20;;;85.40;;
52620;SDS011;38515;53.160;6.990;2022-11-06T15:48:41;158.52;;;152.63;;
52620;SDS011;38515;53.160;6.990;2022-11-06T15:54:04;292.33;;;280.95;;
52620;SDS011;38515;53.160;6.990;2022-11-06T15:56:35;104.63;;;100.47;;
52620;SDS011;38515;53.160;6.990;2022-11-06T15:59:05;311.65;;;299.27;;
52620;SDS011;38515;53.160;6.990;2022-11-06T16:01:33;121.00;;;116.05;;
52620;SDS011;38515;53.160;6.990;2022-11-06T16:04:23;137.30;;;132.05;;
52620;SDS011;38515;53.160;6.990;2022-11-06T16:06:50;101.40;;;97.35;;
52620;SDS011;38515;53.160;6.990;2022-11-06T16:09:20;154.35;;;148.23;;
52620;SDS011;38515;53.160;6.990;2022-11-06T16:11:49;244.35;;;234.73;;
52620;SDS011;38515;53.160;6.990;2022-11-06T16:14:16;151.65;;;145.65;;
52620;SDS011;38515;53.160;6.990;2022-11-06T16:16:45;245.02;;;235.57;;
52620;SDS011;38515;53.160;6.990;2022-11-06T16:19:20;258.83;;;248.27;;
52620;SDS011;38515;53.160;6.990;2022-11-06T16:21:55;286.15;;;274.73;;
52620;SDS011;38515;53.160;6.990;2022-11-06T16:24:53;153.38;;;147.48;;
52620;SDS011;38515;53.160;6.990;2022-11-06T16:27:25;376.23;;;360.63;;
52620;SDS011;38515;53.160;6.990;2022-11-06T16:29:52;296.83;;;285.17;;
52620;SDS011;38515;53.160;6.990;2022-11-06T16:32:26;173.80;;;167.00;;
52620;SDS011;38515;53.160;6.990;2022-11-06T16:34:55;126.13;;;121.35;;
52620;SDS011;38515;53.160;6.990;2022-11-06T16:39:56;119.43;;;114.72;;
52620;SDS011;38515;53.160;6.990;2022-11-06T16:42:24;109.35;;;105.03;;
52620;SDS011;38515;53.160;6.990;2022-11-06T16:50:47;660.85;;;622.83;;
52620;SDS011;38515;53.160;6.990;2022-11-06T16:53:21;770.85;;;725.92;;
52620;SDS011;38515;53.160;6.990;2022-11-06T16:55:54;810.90;;;762.40;;
52620;SDS011;38515;53.160;6.990;2022-11-06T16:58:25;783.75;;;737.35;;
52620;SDS011;38515;53.160;6.990;2022-11-06T17:00:58;800.83;;;753.58;;
52620;SDS011;38515;53.160;6.990;2022-11-06T17:03:27;484.40;;;459.10;;
52620;SDS011;38515;53.160;6.990;2022-11-06T17:05:58;326.40;;;309.58;;
52620;SDS011;38515;53.160;6.990;2022-11-06T17:10:53;207.05;;;198.70;;
52620;SDS011;38515;53.160;6.990;2022-11-06T17:13:31;177.57;;;170.50;;
52620;SDS011;38515;53.160;6.990;2022-11-06T17:15:58;205.02;;;197.20;;